Time;durP1;ratioP1;P1;durP2;ratioP2;P2;SDS_P1;SDS_P2;PMS_P1;PMS_P2;Temp;Humidity;BMP_temperature;BMP_pressure;BME280_temperature;BME280_humidity;BME280_pressure;Samples;Min_cycle;Max_cycle;Signal;HPM_P1;HPM_P2
2023/06/21 00:01:55;;;;;;;3.25;3.05;;;;;;;-146.25;100.00;57403.91;5051422;28;20258;-85
2023/06/21 00:04:22;;;;;;;4.63;4.20;;;;;;;-146.25;100.00;57403.91;5050997;28;20622;-86
2023/06/21 00:06:50;;;;;;;5.50;4.20;;;;;;;-146.25;100.00;57403.91;5051334;28;20202;-87
2023/06/21 00:09:23;;;;;;;4.60;3.93;;;;;;;-146.25;100.00;57403.91;5051275;28;20212;-85
2023/06/21 00:12:06;;;;;;;5.13;3.83;;;;;;;-146.25;100.00;57403.91;5051331;28;20305;-86
2023/06/21 00:14:35;;;;;;;4.73;4.10;;;;;;;-146.25;100.00;57403.91;5051762;28;20274;-85
2023/06/21 00:17:10;;;;;;;6.77;4.00;;;;;;;-146.25;100.00;57403.91;5049936;28;20291;-85
2023/06/21 00:19:39;;;;;;;5.43;3.80;;;;;;;-146.25;100.00;57403.91;5070308;28;20231;-85
2023/06/21 00:22:35;;;;;;;4.00;3.50;;;;;;;-146.25;100.00;57403.91;5052811;28;20198;-85
2023/06/21 00:25:16;;;;;;;4.43;4.03;;;;;;;-146.25;100.00;57403.91;5039123;28;20538;-83
2023/06/21 00:28:41;;;;;;;4.33;3.90;;;;;;;-146.25;100.00;57403.91;5039364;28;20208;-85
2023/06/21 00:31:14;;;;;;;7.23;4.20;;;;;;;-146.25;100.00;57403.91;5032257;28;20248;-86
2023/06/21 00:33:42;;;;;;;4.77;4.27;;;;;;;-146.25;100.00;57403.91;5051073;28;20576;-84
2023/06/21 00:36:14;;;;;;;5.20;3.90;;;;;;;-146.25;100.00;57403.91;5052016;28;20209;-83
2023/06/21 00:38:41;;;;;;;4.10;3.80;;;;;;;-146.25;100.00;57403.91;5054531;28;20200;-83
2023/06/21 00:41:09;;;;;;;4.57;4.25;;;;;;;-146.25;100.00;57403.91;5074408;28;20205;-83
2023/06/21 00:43:38;;;;;;;5.45;4.53;;;;;;;-146.25;100.00;57403.91;5066468;28;20200;-82
2023/06/21 00:46:05;;;;;;;4.07;3.77;;;;;;;-146.25;100.00;57403.91;5051175;28;20271;-83
2023/06/21 00:48:33;;;;;;;4.13;3.47;;;;;;;-146.25;100.00;57403.91;5050764;28;20207;-83
2023/06/21 00:51:00;;;;;;;5.17;3.43;;;;;;;-146.25;100.00;57403.91;5050304;28;20248;-84
2023/06/21 00:53:31;;;;;;;4.87;3.80;;;;;;;-146.25;100.00;57403.91;5050729;28;20201;-83
2023/06/21 00:56:02;;;;;;;3.93;3.60;;;;;;;-146.25;100.00;57403.91;5051355;28;20208;-83
2023/06/21 00:58:28;;;;;;;4.20;3.80;;;;;;;-146.25;100.00;57403.91;5050816;28;20680;-84
2023/06/21 01:00:56;;;;;;;4.30;3.63;;;;;;;-146.25;100.00;57403.91;5049725;28;20595;-83
2023/06/21 01:03:24;;;;;;;4.17;3.87;;;;;;;-146.25;100.00;57403.91;5030450;28;20667;-84
2023/06/21 01:06:04;;;;;;;4.40;4.07;;;;;;;-146.25;100.00;57403.91;5060769;28;20206;-84
2023/06/21 01:08:38;;;;;;;4.93;3.90;;;;;;;-146.25;100.00;57403.91;5070149;28;20690;-85
2023/06/21 01:11:14;;;;;;;3.83;3.33;;;;;;;-146.25;100.00;57403.91;5070818;28;20232;-82
2023/06/21 01:13:55;;;;;;;4.27;3.77;;;;;;;-146.25;100.00;57403.91;5070388;28;20190;-84
2023/06/21 01:16:24;;;;;;;4.70;4.27;;;;;;;-146.25;100.00;57403.91;5063841;28;20194;-84
2023/06/21 01:18:53;;;;;;;4.97;4.50;;;;;;;-146.25;100.00;57403.91;5029550;28;20212;-84
2023/06/21 01:21:26;;;;;;;4.03;3.70;;;;;;;-146.25;100.00;57403.91;5029431;28;20209;-83
2023/06/21 01:24:06;;;;;;;4.17;3.80;;;;;;;-146.25;100.00;57403.91;5030229;28;20293;-83
2023/06/21 01:26:58;;;;;;;4.90;4.23;;;;;;;-146.25;100.00;57403.91;5030070;28;20270;-83
2023/06/21 01:29:37;;;;;;;7.27;4.10;;;;;;;-146.25;100.00;57403.91;5030378;28;20223;-84
2023/06/21 01:32:08;;;;;;;5.03;4.63;;;;;;;-146.25;100.00;57403.91;5029127;28;20625;-82
2023/06/21 01:34:36;;;;;;;4.30;3.87;;;;;;;-146.25;100.00;57403.91;5030396;28;20203;-83
2023/06/21 01:37:08;;;;;;;5.83;4.20;;;;;;;-146.25;100.00;57403.91;5030261;28;20234;-84
2023/06/21 01:39:36;;;;;;;6.80;3.90;;;;;;;-146.25;100.00;57403.91;5030175;28;20294;-83
2023/06/21 01:42:04;;;;;;;4.20;3.90;;;;;;;-146.25;100.00;57403.91;5029880;28;20205;-84
2023/06/21 01:44:34;;;;;;;4.07;3.77;;;;;;;-146.25;100.00;57403.91;5029501;28;20221;-85
2023/06/21 01:47:01;;;;;;;5.13;4.13;;;;;;;-146.25;100.00;57403.91;5029611;28;20243;-85
2023/06/21 01:49:31;;;;;;;8.40;4.60;;;;;;;-146.25;100.00;57403.91;5029877;28;20355;-85
2023/06/21 01:51:59;;;;;;;4.30;3.90;;;;;;;-146.25;100.00;57403.91;5029636;28;20232;-85
2023/06/21 01:54:28;;;;;;;7.20;4.70;;;;;;;-146.25;100.00;57403.91;5029982;28;20374;-83
2023/06/21 01:57:00;;;;;;;5.27;4.43;;;;;;;-146.25;100.00;57403.91;5030240;28;20200;-84
2023/06/21 01:59:29;;;;;;;4.23;3.80;;;;;;;-146.25;100.00;57403.91;5029033;28;20199;-83
2023/06/21 02:01:59;;;;;;;4.93;4.40;;;;;;;-146.25;100.00;57403.91;5030044;28;20222;-84
2023/06/21 02:04:29;;;;;;;5.07;3.97;;;;;;;-146.25;100.00;57403.91;5030609;28;20279;-84
2023/06/21 02:06:57;;;;;;;4.53;3.67;;;;;;;-146.25;100.00;57403.91;5029800;28;20238;-85
2023/06/21 02:09:25;;;;;;;5.93;3.87;;;;;;;-146.25;100.00;57403.91;5029218;28;20274;-84
2023/06/21 02:11:53;;;;;;;6.03;3.93;;;;;;;-146.25;100.00;57403.91;5029686;28;20319;-83
2023/06/21 02:14:20;;;;;;;4.27;3.90;;;;;;;-146.25;100.00;57403.91;5029306;28;20265;-84
2023/06/21 02:16:47;;;;;;;4.67;4.13;;;;;;;-146.25;100.00;57403.91;5029145;28;20215;-85
2023/06/21 02:19:15;;;;;;;6.23;4.50;;;;;;;-146.25;100.00;57403.91;5049461;28;20208;-83
2023/06/21 02:21:45;;;;;;;4.40;4.00;;;;;;;-146.25;100.00;57403.91;5045505;28;20244;-83
2023/06/21 02:24:12;;;;;;;7.47;4.60;;;;;;;-146.25;100.00;57403.91;5011897;28;20200;-84
2023/06/21 02:26:39;;;;;;;4.83;4.20;;;;;;;-146.25;100.00;57403.91;5029418;28;20203;-84
2023/06/21 02:29:06;;;;;;;4.10;3.70;;;;;;;-146.25;100.00;57403.91;5029217;28;20215;-83
2023/06/21 02:31:34;;;;;;;7.47;4.07;;;;;;;-146.25;100.00;57403.91;5029362;28;20738;-84
2023/06/21 02:34:02;;;;;;;4.23;3.83;;;;;;;-146.25;100.00;57403.91;5031607;28;20544;-83
2023/06/21 02:36:30;;;;;;;4.13;3.83;;;;;;;-146.25;100.00;57403.91;5032814;28;20283;-84
2023/06/21 02:38:57;;;;;;;6.17;4.47;;;;;;;-146.25;100.00;57403.91;5042283;28;20200;-83
2023/06/21 02:41:24;;;;;;;6.40;4.80;;;;;;;-146.25;100.00;57403.91;5048247;28;20196;-84
2023/06/21 02:43:51;;;;;;;4.43;4.03;;;;;;;-146.25;100.00;57403.91;5032956;28;20224;-84
2023/06/21 02:46:20;;;;;;;4.53;4.13;;;;;;;-146.25;100.00;57403.91;5032116;28;20205;-85
2023/06/21 02:48:47;;;;;;;4.00;3.67;;;;;;;-146.25;100.00;57403.91;5032559;28;20208;-83
2023/06/21 02:51:14;;;;;;;5.70;4.83;;;;;;;-146.25;100.00;57403.91;5031984;28;20734;-84
2023/06/21 02:53:43;;;;;;;4.47;4.07;;;;;;;-146.25;100.00;57403.91;5032376;28;20197;-85
2023/06/21 02:56:10;;;;;;;5.33;4.37;;;;;;;-146.25;100.00;57403.91;5032258;28;20197;-85
2023/06/21 02:58:41;;;;;;;5.00;4.20;;;;;;;-146.25;100.00;57403.91;5032498;28;20262;-85
2023/06/21 03:01:08;;;;;;;5.80;4.40;;;;;;;-146.25;100.00;57403.91;5032420;28;20193;-86
2023/06/21 03:03:35;;;;;;;8.93;5.27;;;;;;;-146.25;100.00;57403.91;5032017;28;20216;-84
2023/06/21 03:06:05;;;;;;;48.83;22.53;;;;;;;-146.25;100.00;57403.91;5031985;28;20283;-85
2023/06/21 03:08:32;;;;;;;9.13;5.50;;;;;;;-146.25;100.00;57403.91;5032339;28;20197;-84
2023/06/21 03:11:01;;;;;;;6.07;4.07;;;;;;;-146.25;100.00;57403.91;5032022;28;20252;-83
2023/06/21 03:13:28;;;;;;;9.47;5.00;;;;;;;-146.25;100.00;57403.91;5031944;28;20258;-85
2023/06/21 03:15:55;;;;;;;4.60;4.18;;;;;;;-146.25;100.00;57403.91;5032017;28;20333;-84
2023/06/21 03:18:22;;;;;;;6.22;4.45;;;;;;;-146.25;100.00;57403.91;5031959;28;20216;-84
2023/06/21 03:20:50;;;;;;;8.40;4.88;;;;;;;-146.25;100.00;57403.91;5032079;28;20408;-84
2023/06/21 03:23:17;;;;;;;6.25;4.35;;;;;;;-146.25;100.00;57403.91;5031550;28;20314;-84
2023/06/21 03:25:44;;;;;;;4.30;4.00;;;;;;;-146.25;100.00;57403.91;5032219;28;20268;-84
2023/06/21 03:28:12;;;;;;;5.25;4.72;;;;;;;-146.25;100.00;57403.91;5031619;28;20755;-85
2023/06/21 03:30:39;;;;;;;5.03;4.53;;;;;;;-146.25;100.00;57403.91;5031938;28;20242;-84
2023/06/21 03:33:06;;;;;;;4.35;4.05;;;;;;;-146.25;100.00;57403.91;5031881;28;20204;-85
2023/06/21 03:35:33;;;;;;;5.10;4.60;;;;;;;-146.25;100.00;57403.91;5031546;28;20230;-85
2023/06/21 03:38:03;;;;;;;4.60;4.22;;;;;;;-146.25;100.00;57403.91;5031639;28;20266;-86
2023/06/21 03:40:30;;;;;;;5.55;4.60;;;;;;;-146.25;100.00;57403.91;5031489;28;20223;-85
2023/06/21 03:42:57;;;;;;;8.80;4.38;;;;;;;-146.25;100.00;57403.91;5032024;28;20207;-85
2023/06/21 03:45:25;;;;;;;5.80;4.63;;;;;;;-146.25;100.00;57403.91;5030523;28;20242;-87
2023/06/21 03:47:53;;;;;;;5.78;5.20;;;;;;;-146.25;100.00;57403.91;5031851;28;20696;-85
2023/06/21 03:50:20;;;;;;;6.97;5.35;;;;;;;-146.25;100.00;57403.91;5031698;28;20310;-85
2023/06/21 03:52:47;;;;;;;6.18;4.65;;;;;;;-146.25;100.00;57403.91;5031464;28;20208;-86
2023/06/21 03:55:14;;;;;;;7.00;4.72;;;;;;;-146.25;100.00;57403.91;5031423;28;20249;-86
2023/06/21 03:57:43;;;;;;;6.15;4.70;;;;;;;-146.25;100.00;57403.91;5031064;28;20204;-86
2023/06/21 04:00:12;;;;;;;4.63;4.25;;;;;;;-146.25;100.00;57403.91;5031025;28;20208;-85
2023/06/21 04:02:45;;;;;;;5.25;4.75;;;;;;;-146.25;100.00;57403.91;5031937;28;20207;-86
2023/06/21 04:05:12;;;;;;;5.22;4.50;;;;;;;-146.25;100.00;57403.91;5031233;28;20196;-85
2023/06/21 04:07:39;;;;;;;5.45;4.90;;;;;;;-146.25;100.00;57403.91;5030874;28;20200;-84
2023/06/21 04:10:09;;;;;;;5.82;5.32;;;;;;;-146.25;100.00;57403.91;5031200;28;20205;-85
2023/06/21 04:12:37;;;;;;;6.70;5.97;;;;;;;-146.25;100.00;57403.91;5031291;28;20228;-88
2023/06/21 04:15:06;;;;;;;8.57;6.82;;;;;;;-146.25;100.00;57403.91;5031150;28;20200;-86
2023/06/21 04:17:36;;;;;;;9.30;7.55;;;;;;;-146.25;100.00;57403.91;5031827;28;20640;-86
2023/06/21 04:20:12;;;;;;;8.68;6.13;;;;;;;-146.25;100.00;57403.91;5034184;28;20223;-86
2023/06/21 04:22:39;;;;;;;14.40;9.40;;;;;;;-146.25;100.00;57403.91;5031779;28;20592;-86
2023/06/21 04:25:07;;;;;;;6.50;5.70;;;;;;;-146.25;100.00;57403.91;5031791;28;20258;-84
2023/06/21 04:27:34;;;;;;;6.47;5.63;;;;;;;-146.25;100.00;57403.91;5030669;28;20568;-85
2023/06/21 04:30:01;;;;;;;7.25;6.13;;;;;;;-146.25;100.00;57403.91;5031206;28;20196;-87
2023/06/21 04:32:31;;;;;;;17.92;11.68;;;;;;;-146.25;100.00;57403.91;5031208;28;20231;-87
2023/06/21 04:34:59;;;;;;;7.30;5.93;;;;;;;-146.25;100.00;57403.91;5031091;28;20645;-86
2023/06/21 04:37:28;;;;;;;6.82;6.05;;;;;;;-146.25;100.00;57403.91;5031210;28;20207;-84
2023/06/21 04:39:55;;;;;;;10.13;6.95;;;;;;;-146.25;100.00;57403.91;5030934;28;20283;-84
2023/06/21 04:42:25;;;;;;;8.68;7.57;;;;;;;-146.25;100.00;57403.91;5029945;28;20196;-85
2023/06/21 04:44:52;;;;;;;6.68;6.10;;;;;;;-146.25;100.00;57403.91;5038667;28;20188;-84
2023/06/21 04:47:24;;;;;;;7.45;6.13;;;;;;;-146.25;100.00;57403.91;5047465;28;20230;-85
2023/06/21 04:49:53;;;;;;;6.63;6.00;;;;;;;-146.25;100.00;57403.91;5035640;28;20721;-85
2023/06/21 04:52:20;;;;;;;7.03;6.38;;;;;;;-146.25;100.00;57403.91;5029339;28;20231;-85
2023/06/21 04:54:48;;;;;;;8.48;6.63;;;;;;;-146.25;100.00;57403.91;5029916;28;20204;-84
2023/06/21 04:57:16;;;;;;;11.57;6.50;;;;;;;-146.25;100.00;57403.91;5030558;28;20239;-85
2023/06/21 04:59:43;;;;;;;7.03;6.32;;;;;;;-146.25;100.00;57403.91;5030422;28;20215;-85
2023/06/21 05:02:10;;;;;;;11.88;6.65;;;;;;;-146.25;100.00;57403.91;5029903;28;20208;-86
2023/06/21 05:04:40;;;;;;;9.23;6.47;;;;;;;-146.25;100.00;57403.91;5029864;28;20376;-85
2023/06/21 05:07:09;;;;;;;7.47;6.78;;;;;;;-146.25;100.00;57403.91;5030260;28;20314;-87
2023/06/21 05:09:38;;;;;;;6.78;6.10;;;;;;;-146.25;100.00;57403.91;5030083;28;20220;-86
2023/06/21 05:12:08;;;;;;;7.13;6.43;;;;;;;-146.25;100.00;57403.91;5029992;28;20712;-86
2023/06/21 05:14:36;;;;;;;11.70;6.65;;;;;;;-146.25;100.00;57403.91;5030178;28;20326;-84
2023/06/21 05:17:04;;;;;;;10.00;6.78;;;;;;;-146.25;100.00;57403.91;5029666;28;20203;-85
2023/06/21 05:19:31;;;;;;;7.30;6.50;;;;;;;-146.25;100.00;57403.91;5030662;28;20226;-86
2023/06/21 05:21:59;;;;;;;6.10;5.47;;;;;;;-146.25;100.00;57403.91;5030596;28;20733;-85
2023/06/21 05:24:26;;;;;;;9.60;6.32;;;;;;;-146.25;100.00;57403.91;5030315;28;20203;-85
2023/06/21 05:26:53;;;;;;;9.25;7.97;;;;;;;-146.25;100.00;57403.91;5029589;28;20616;-86
2023/06/21 05:29:24;;;;;;;8.15;7.32;;;;;;;-146.25;100.00;57403.91;5029718;28;20219;-86
2023/06/21 05:31:56;;;;;;;9.82;6.53;;;;;;;-146.25;100.00;57403.91;5029843;28;20799;-85
2023/06/21 05:34:23;;;;;;;8.20;7.15;;;;;;;-146.25;100.00;57403.91;5030081;28;20241;-86
2023/06/21 05:36:50;;;;;;;8.18;7.05;;;;;;;-146.25;100.00;57403.91;5030357;28;20273;-85
2023/06/21 05:39:17;;;;;;;6.85;6.15;;;;;;;-146.25;100.00;57403.91;5029820;28;20279;-85
2023/06/21 05:41:44;;;;;;;7.78;6.13;;;;;;;-146.25;100.00;57403.91;5030523;28;20669;-86
2023/06/21 05:44:16;;;;;;;7.65;6.82;;;;;;;-146.25;100.00;57403.91;5030018;28;20299;-85
2023/06/21 05:46:45;;;;;;;7.20;6.45;;;;;;;-146.25;100.00;57403.91;5029858;28;20656;-85
2023/06/21 05:49:12;;;;;;;7.40;6.70;;;;;;;-146.25;100.00;57403.91;5030405;28;20632;-86
2023/06/21 05:51:39;;;;;;;6.95;6.30;;;;;;;-146.25;100.00;57403.91;5030330;28;20211;-85
2023/06/21 05:54:06;;;;;;;8.43;7.05;;;;;;;-146.25;100.00;57403.91;5030256;28;20667;-85
2023/06/21 05:56:37;;;;;;;8.05;6.43;;;;;;;-146.25;100.00;57403.91;5030418;28;20736;-85
2023/06/21 05:59:09;;;;;;;7.63;6.88;;;;;;;-146.25;100.00;57403.91;5029855;28;20830;-86
2023/06/21 06:02:35;;;;;;;9.40;7.18;;;;;;;-146.25;100.00;57403.91;5029751;28;20208;-85
2023/06/21 06:06:00;;;;;;;11.77;6.40;;;;;;;-146.25;100.00;57403.91;5029622;28;20203;-86
2023/06/21 06:09:26;;;;;;;8.60;7.47;;;;;;;-146.25;100.00;57403.91;5031228;28;20234;-85
2023/06/21 06:11:56;;;;;;;8.18;7.03;;;;;;;-146.25;100.00;57403.91;5033439;28;20688;-85
2023/06/21 06:14:57;;;;;;;7.82;6.63;;;;;;;-146.25;100.00;57403.91;5034775;28;20221;-84
2023/06/21 06:18:24;;;;;;;7.32;6.63;;;;;;;-146.25;100.00;57403.91;5033732;28;20199;-85
2023/06/21 06:21:12;;;;;;;8.25;7.45;;;;;;;-146.25;100.00;57403.91;5039549;28;20670;-85
2023/06/21 06:23:41;;;;;;;8.05;7.22;;;;;;;-146.25;100.00;57403.91;5037848;28;20219;-85
2023/06/21 06:26:58;;;;;;;7.47;6.78;;;;;;;-146.25;100.00;57403.91;5035404;28;20200;-88
2023/06/21 06:30:24;;;;;;;7.63;6.93;;;;;;;-146.25;100.00;57403.91;5057711;28;20266;-85
2023/06/21 06:33:51;;;;;;;8.10;7.30;;;;;;;-146.25;100.00;57403.91;5054498;28;20222;-84
2023/06/21 06:37:17;;;;;;;8.55;7.15;;;;;;;-146.25;100.00;57403.91;5052815;28;20199;-84
2023/06/21 06:40:42;;;;;;;8.57;7.72;;;;;;;-146.25;100.00;57403.91;5056177;28;20214;-85
2023/06/21 06:44:07;;;;;;;8.20;7.05;;;;;;;-146.25;100.00;57403.91;5058088;28;20199;-85
2023/06/21 06:47:33;;;;;;;9.60;7.63;;;;;;;-146.25;100.00;57403.91;5055318;28;20202;-84
2023/06/21 06:51:00;;;;;;;8.13;7.07;;;;;;;-146.25;100.00;57403.91;5056234;28;20308;-85
2023/06/21 06:54:26;;;;;;;7.70;7.00;;;;;;;-146.25;100.00;57403.91;5056283;28;20276;-85
2023/06/21 06:57:51;;;;;;;10.88;7.57;;;;;;;-146.25;100.00;57403.91;5060255;28;20338;-85
2023/06/21 07:01:17;;;;;;;8.82;7.28;;;;;;;-146.25;100.00;57403.91;5060135;28;20718;-86
2023/06/21 07:04:43;;;;;;;7.68;6.90;;;;;;;-146.25;100.00;57403.91;5055271;28;20194;-86
2023/06/21 07:08:10;;;;;;;8.02;7.32;;;;;;;-146.25;100.00;57403.91;5054876;28;20652;-86
2023/06/21 07:11:38;;;;;;;9.20;7.28;;;;;;;-146.25;100.00;57403.91;5055514;28;20211;-85
2023/06/21 07:15:04;;;;;;;8.38;7.63;;;;;;;-146.25;100.00;57403.91;5055407;28;20244;-85
2023/06/21 07:18:30;;;;;;;7.88;7.05;;;;;;;-146.25;100.00;57403.91;5053967;28;20203;-86
2023/06/21 07:21:56;;;;;;;8.38;7.38;;;;;;;-146.25;100.00;57403.91;5052538;28;20209;-85
2023/06/21 07:25:23;;;;;;;8.98;7.20;;;;;;;-146.25;100.00;57403.91;5053349;28;20642;-85
2023/06/21 07:28:52;;;;;;;10.35;7.43;;;;;;;-146.25;100.00;57403.91;5055986;28;20314;-85
2023/06/21 07:32:17;;;;;;;7.20;6.50;;;;;;;-146.25;100.00;57403.91;5055889;28;20193;-85
2023/06/21 07:35:43;;;;;;;9.85;6.53;;;;;;;-146.25;100.00;57403.91;5055280;28;20191;-84
2023/06/21 07:39:08;;;;;;;11.48;7.13;;;;;;;-146.25;100.00;57403.91;5055357;28;20202;-85
2023/06/21 07:42:35;;;;;;;7.28;6.57;;;;;;;-146.25;100.00;57403.91;5054792;28;20253;-84
2023/06/21 07:46:01;;;;;;;7.88;7.05;;;;;;;-146.25;100.00;57403.91;5055042;28;20699;-86
2023/06/21 07:49:26;;;;;;;6.88;6.38;;;;;;;-146.25;100.00;57403.91;5053724;28;20205;-85
2023/06/21 07:52:52;;;;;;;6.95;6.35;;;;;;;-146.25;100.00;57403.91;5056103;28;20199;-85
2023/06/21 07:56:20;;;;;;;8.30;7.13;;;;;;;-146.25;100.00;57403.91;5053846;28;20682;-85
2023/06/21 07:59:47;;;;;;;7.05;6.32;;;;;;;-146.25;100.00;57403.91;5054393;28;20282;-85
2023/06/21 08:03:13;;;;;;;8.65;7.28;;;;;;;-146.25;100.00;57403.91;5055843;28;20252;-86
2023/06/21 08:06:38;;;;;;;7.72;6.80;;;;;;;-146.25;100.00;57403.91;5056118;28;20199;-84
2023/06/21 08:10:04;;;;;;;6.63;6.10;;;;;;;-146.25;100.00;57403.91;5055434;28;20302;-85
2023/06/21 08:13:30;;;;;;;7.90;7.13;;;;;;;-146.25;100.00;57403.91;5054215;28;20509;-85
2023/06/21 08:16:57;;;;;;;6.63;5.95;;;;;;;-146.25;100.00;57403.91;5054656;28;20229;-87
2023/06/21 08:20:23;;;;;;;7.97;6.57;;;;;;;-146.25;100.00;57403.91;5055498;28;20555;-86
2023/06/21 08:23:49;;;;;;;6.60;5.97;;;;;;;-146.25;100.00;57403.91;5052348;28;20671;-85
2023/06/21 08:27:15;;;;;;;6.57;5.97;;;;;;;-146.25;100.00;57403.91;5052470;28;20194;-85
2023/06/21 08:30:41;;;;;;;6.25;5.75;;;;;;;-146.25;100.00;57403.91;5053148;28;20199;-85
2023/06/21 08:34:08;;;;;;;6.90;6.25;;;;;;;-146.25;100.00;57403.91;5052278;28;20729;-86
2023/06/21 08:37:34;;;;;;;7.45;6.35;;;;;;;-146.25;100.00;57403.91;5051819;28;20285;-85
2023/06/21 08:41:03;;;;;;;5.88;5.40;;;;;;;-146.25;100.00;57403.91;5052783;28;20203;-84
2023/06/21 08:44:28;;;;;;;5.18;4.78;;;;;;;-146.25;100.00;57403.91;5058153;28;20195;-86
2023/06/21 08:47:55;;;;;;;5.28;4.88;;;;;;;-146.25;100.00;57403.91;5074690;28;20199;-84
2023/06/21 08:51:23;;;;;;;6.03;5.47;;;;;;;-146.25;100.00;57403.91;5050880;28;20242;-84
2023/06/21 08:54:52;;;;;;;5.97;5.57;;;;;;;-146.25;100.00;57403.91;5051782;28;20686;-85
2023/06/21 08:58:24;;;;;;;4.72;4.45;;;;;;;-146.25;100.00;57403.91;5051650;28;20206;-85
2023/06/21 09:01:54;;;;;;;6.45;5.80;;;;;;;-146.25;100.00;57403.91;5051338;28;20210;-84
2023/06/21 09:05:27;;;;;;;6.82;5.43;;;;;;;-146.25;100.00;57403.91;5051068;28;20527;-85
2023/06/21 09:08:53;;;;;;;5.93;5.30;;;;;;;-146.25;100.00;57403.91;5051205;28;20218;-85
2023/06/21 09:12:20;;;;;;;5.53;4.93;;;;;;;-146.25;100.00;57403.91;5050747;28;20211;-85
2023/06/21 09:15:48;;;;;;;4.95;4.55;;;;;;;-146.25;100.00;57403.91;5050484;28;20303;-85
2023/06/21 09:19:15;;;;;;;4.90;4.60;;;;;;;-146.25;100.00;57403.91;5050531;28;20206;-85
2023/06/21 09:22:46;;;;;;;5.75;5.13;;;;;;;-146.25;100.00;57403.91;5050863;28;20198;-85
2023/06/21 09:26:12;;;;;;;5.50;5.03;;;;;;;-146.25;100.00;57403.91;5050987;28;20214;-89
2023/06/21 09:29:38;;;;;;;4.80;4.43;;;;;;;-146.25;100.00;57403.91;5050798;28;20565;-85
2023/06/21 09:33:04;;;;;;;5.13;4.63;;;;;;;-146.25;100.00;57403.91;5050970;28;20211;-85
2023/06/21 09:36:29;;;;;;;5.57;4.85;;;;;;;-146.25;100.00;57403.91;5050377;28;20695;-86
2023/06/21 09:39:10;;;;;;;4.40;4.10;;;;;;;-146.25;100.00;57403.91;5050763;28;20196;-86
2023/06/21 09:41:45;;;;;;;4.97;4.65;;;;;;;-146.25;100.00;57403.91;5050622;28;20210;-86
2023/06/21 09:44:21;;;;;;;4.60;4.25;;;;;;;-146.25;100.00;57403.91;5049948;28;20213;-87
2023/06/21 09:46:57;;;;;;;5.22;4.72;;;;;;;-146.25;100.00;57403.91;5050659;28;20660;-86
2023/06/21 09:50:09;;;;;;;4.40;4.20;;;;;;;-146.25;100.00;57403.91;5049870;28;20733;-87
2023/06/21 09:53:36;;;;;;;4.05;3.75;;;;;;;-146.25;100.00;57403.91;5050023;28;20196;-86
2023/06/21 09:57:04;;;;;;;4.30;4.00;;;;;;;-146.25;100.00;57403.91;5050158;28;20203;-86
2023/06/21 10:00:36;;;;;;;4.68;4.28;;;;;;;-146.25;100.00;57403.91;5050231;28;20210;-85
2023/06/21 10:04:07;;;;;;;4.05;3.83;;;;;;;-146.25;100.00;57403.91;5049826;28;20253;-85
2023/06/21 10:07:36;;;;;;;4.18;3.88;;;;;;;-146.25;100.00;57403.91;5050018;28;20256;-86
2023/06/21 10:11:07;;;;;;;4.13;3.78;;;;;;;-146.25;100.00;57403.91;5050674;28;20256;-86
2023/06/21 10:14:33;;;;;;;5.45;4.95;;;;;;;-146.25;100.00;57403.91;5049959;28;20206;-85
2023/06/21 10:18:01;;;;;;;5.70;5.20;;;;;;;-146.25;100.00;57403.91;5049903;28;20570;-85
2023/06/21 10:21:28;;;;;;;4.57;4.22;;;;;;;-146.25;100.00;57403.91;5050028;28;20200;-85
2023/06/21 10:24:57;;;;;;;5.10;4.50;;;;;;;-146.25;100.00;57403.91;5050057;28;20202;-83
2023/06/21 10:28:27;;;;;;;4.40;4.10;;;;;;;-146.25;100.00;57403.91;5049909;28;20194;-86
2023/06/21 10:31:56;;;;;;;4.70;4.40;;;;;;;-146.25;100.00;57403.91;5050073;28;20199;-85
2023/06/21 10:35:26;;;;;;;4.07;3.78;;;;;;;-146.25;100.00;57403.91;5050192;28;20322;-85
2023/06/21 10:39:00;;;;;;;3.97;3.78;;;;;;;-146.25;100.00;57403.91;5049610;28;20302;-86
2023/06/21 10:42:28;;;;;;;3.92;3.63;;;;;;;-146.25;100.00;57403.91;5049440;28;20672;-85
2023/06/21 10:45:54;;;;;;;4.93;4.00;;;;;;;-146.25;100.00;57403.91;5049699;28;20278;-85
2023/06/21 10:49:21;;;;;;;4.43;3.60;;;;;;;-146.25;100.00;57403.91;5050563;28;20261;-86
2023/06/21 10:52:48;;;;;;;4.75;4.45;;;;;;;-146.25;100.00;57403.91;5049995;28;20286;-86
2023/06/21 10:56:16;;;;;;;4.50;4.20;;;;;;;-146.25;100.00;57403.91;5052684;28;20235;-86
2023/06/21 10:59:44;;;;;;;4.63;4.43;;;;;;;-146.25;100.00;57403.91;5053467;28;20207;-86
2023/06/21 11:03:12;;;;;;;4.72;4.43;;;;;;;-146.25;100.00;57403.91;5053528;28;20196;-86
2023/06/21 11:06:43;;;;;;;6.25;4.07;;;;;;;-146.25;100.00;57403.91;5053264;28;20786;-86
2023/06/21 11:10:09;;;;;;;4.82;4.43;;;;;;;-146.25;100.00;57403.91;5053200;28;20207;-85
2023/06/21 11:13:36;;;;;;;5.38;4.00;;;;;;;-146.25;100.00;57403.91;5053087;28;20231;-86
2023/06/21 11:17:12;;;;;;;5.05;4.65;;;;;;;-146.25;100.00;57403.91;5053243;28;20231;-86
2023/06/21 11:20:45;;;;;;;5.60;4.75;;;;;;;-146.25;100.00;57403.91;5052511;28;20199;-85
2023/06/21 11:24:16;;;;;;;4.90;4.60;;;;;;;-146.25;100.00;57403.91;5053196;28;20659;-86
2023/06/21 11:28:09;;;;;;;3.97;3.75;;;;;;;-146.25;100.00;57403.91;5053186;28;20293;-87
2023/06/21 11:31:40;;;;;;;4.90;4.50;;;;;;;-146.25;100.00;57403.91;5052649;28;20207;-88
2023/06/21 11:35:09;;;;;;;3.70;3.50;;;;;;;-146.25;100.00;57403.91;5053244;28;20195;-84
2023/06/21 11:38:36;;;;;;;5.57;4.43;;;;;;;-146.25;100.00;57403.91;5053573;28;20282;-86
2023/06/21 11:42:26;;;;;;;3.97;3.72;;;;;;;-146.25;100.00;57403.91;5053127;28;20207;-86
2023/06/21 11:45:57;;;;;;;5.07;4.20;;;;;;;-146.25;100.00;57403.91;5052041;28;20280;-86
2023/06/21 11:49:31;;;;;;;4.05;3.75;;;;;;;-146.25;100.00;57403.91;5052514;28;20258;-84
2023/06/21 11:53:29;;;;;;;5.20;4.72;;;;;;;-146.25;100.00;57403.91;5052460;28;20203;-86
2023/06/21 11:56:55;;;;;;;4.47;4.18;;;;;;;-146.25;100.00;57403.91;5027939;28;20245;-86
2023/06/21 12:00:22;;;;;;;5.18;4.47;;;;;;;-146.25;100.00;57403.91;5052790;28;20583;-85
2023/06/21 12:03:56;;;;;;;4.80;4.50;;;;;;;-146.25;100.00;57403.91;5052681;28;20580;-85
2023/06/21 12:07:22;;;;;;;4.47;4.18;;;;;;;-146.25;100.00;57403.91;5051863;28;20225;-86
2023/06/21 12:10:51;;;;;;;4.63;4.32;;;;;;;-146.25;100.00;57403.91;5051772;28;20774;-85
2023/06/21 12:14:20;;;;;;;4.57;4.22;;;;;;;-146.25;100.00;57403.91;5051445;28;20203;-86
2023/06/21 12:17:53;;;;;;;5.40;4.97;;;;;;;-146.25;100.00;57403.91;5051710;28;20695;-85
2023/06/21 12:21:20;;;;;;;5.20;4.70;;;;;;;-146.25;100.00;57403.91;5051982;28;20633;-85
2023/06/21 12:24:46;;;;;;;7.47;4.68;;;;;;;-146.25;100.00;57403.91;5052267;28;20199;-86
2023/06/21 12:28:13;;;;;;;4.47;4.18;;;;;;;-146.25;100.00;57403.91;5050883;28;20199;-85
2023/06/21 12:31:48;;;;;;;5.45;5.05;;;;;;;-146.25;100.00;57403.91;5051614;28;20235;-85
2023/06/21 12:35:19;;;;;;;5.00;4.60;;;;;;;-146.25;100.00;57403.91;5051719;28;20272;-87
2023/06/21 12:37:55;;;;;;;5.30;3.92;;;;;;;-146.25;100.00;57403.91;5052152;28;20231;-85
2023/06/21 12:40:58;;;;;;;4.40;4.13;;;;;;;-146.25;100.00;57403.91;5052380;28;20269;-85
2023/06/21 12:43:57;;;;;;;4.28;3.95;;;;;;;-146.25;100.00;57403.91;5061381;28;20209;-86
2023/06/21 12:47:23;;;;;;;5.47;5.00;;;;;;;-146.25;100.00;57403.91;5071985;28;20207;-85
2023/06/21 12:50:48;;;;;;;4.85;4.55;;;;;;;-146.25;100.00;57403.91;5052198;28;20243;-86
2023/06/21 12:54:22;;;;;;;5.07;4.57;;;;;;;-146.25;100.00;57403.91;5052992;28;20203;-85
2023/06/21 12:57:48;;;;;;;4.95;4.65;;;;;;;-146.25;100.00;57403.91;5051482;28;20240;-87
2023/06/21 13:01:15;;;;;;;4.45;4.05;;;;;;;-146.25;100.00;57403.91;5051207;28;20207;-85
2023/06/21 13:04:46;;;;;;;4.40;3.92;;;;;;;-146.25;100.00;57403.91;5051004;28;20229;-87
2023/06/21 13:08:11;;;;;;;4.65;4.25;;;;;;;-146.25;100.00;57403.91;5051461;28;20203;-86
2023/06/21 13:11:27;;;;;;;4.68;4.13;;;;;;;-146.25;100.00;57403.91;5051132;28;20192;-84
2023/06/21 13:14:53;;;;;;;5.15;4.47;;;;;;;-146.25;100.00;57403.91;5050828;28;20573;-85
2023/06/21 13:18:19;;;;;;;4.38;3.92;;;;;;;-146.25;100.00;57403.91;5051419;28;20236;-86